Time;durP1;ratioP1;P1;durP2;ratioP2;P2;SDS_P1;SDS_P2;PMS_P1;PMS_P2;Temp;Humidity;BMP_temperature;BMP_pressure;BME280_temperature;BME280_humidity;BME280_pressure;Samples;Min_cycle;Max_cycle;Signal;HPM_P1;HPM_P2
2023/11/01 00:01:12;;;;;;;9.43;4.47;;;12.00;99.90;;;;;;5053246;28;20190;-71
2023/11/01 00:03:38;;;;;;;12.60;3.70;;;12.00;99.90;;;;;;5052912;28;20256;-71
2023/11/01 00:06:04;;;;;;;7.90;4.27;;;12.10;99.90;;;;;;5052833;28;20632;-71
2023/11/01 00:08:29;;;;;;;10.10;4.20;;;12.10;99.90;;;;;;5052629;28;20197;-73
2023/11/01 00:10:55;;;;;;;8.57;4.47;;;12.10;99.90;;;;;;5052460;28;20183;-71
2023/11/01 00:13:20;;;;;;;8.00;4.00;;;12.10;99.90;;;;;;5054016;28;20175;-72
2023/11/01 00:15:46;;;;;;;9.70;4.50;;;12.10;99.90;;;;;;5053292;28;20209;-72
2023/11/01 00:18:11;;;;;;;8.33;4.30;;;12.10;99.90;;;;;;5054009;28;20163;-71
2023/11/01 00:20:37;;;;;;;6.67;4.27;;;12.10;99.90;;;;;;5053993;28;20178;-71
2023/11/01 00:23:03;;;;;;;5.87;4.13;;;12.10;99.90;;;;;;5054030;28;20262;-71
2023/11/01 00:25:28;;;;;;;7.13;4.00;;;12.10;99.90;;;;;;5052238;28;20236;-71
2023/11/01 00:27:54;;;;;;;8.80;4.63;;;12.10;99.90;;;;;;5052484;28;20217;-71
2023/11/01 00:30:19;;;;;;;6.33;4.00;;;12.10;99.90;;;;;;5052412;28;20284;-71
2023/11/01 00:32:45;;;;;;;6.17;3.73;;;12.00;99.90;;;;;;5052212;28;20215;-71
2023/11/01 00:35:10;;;;;;;5.07;3.87;;;12.10;99.90;;;;;;5051904;28;20207;-71
2023/11/01 00:37:36;;;;;;;8.90;4.57;;;12.10;99.90;;;;;;5052101;28;20175;-71
2023/11/01 00:40:02;;;;;;;7.63;4.03;;;12.10;99.90;;;;;;5052198;28;20191;-72
2023/11/01 00:42:29;;;;;;;6.60;3.63;;;12.10;99.90;;;;;;5051750;28;20174;-72
2023/11/01 00:44:54;;;;;;;6.23;4.10;;;12.10;99.90;;;;;;5051627;28;20244;-73
2023/11/01 00:47:20;;;;;;;5.80;4.30;;;12.10;99.90;;;;;;5052147;28;20175;-73
2023/11/01 00:49:45;;;;;;;8.83;4.00;;;12.00;99.90;;;;;;5051832;28;20178;-71
2023/11/01 00:52:11;;;;;;;5.03;3.60;;;12.00;99.90;;;;;;5052113;28;20179;-71
2023/11/01 00:54:36;;;;;;;7.30;3.87;;;12.00;99.90;;;;;;5051260;28;20225;-72
2023/11/01 00:57:02;;;;;;;5.30;4.63;;;12.00;99.90;;;;;;5051030;28;20305;-71
2023/11/01 00:59:28;;;;;;;7.03;4.03;;;11.90;99.90;;;;;;5051777;28;20668;-72
2023/11/01 01:01:53;;;;;;;6.80;3.93;;;11.80;99.90;;;;;;5051532;28;20179;-72
2023/11/01 01:04:19;;;;;;;5.93;3.80;;;11.70;99.90;;;;;;5051692;28;20282;-72
2023/11/01 01:06:44;;;;;;;8.37;4.10;;;11.70;99.90;;;;;;5051388;28;20175;-71
2023/11/01 01:09:12;;;;;;;6.63;5.07;;;11.70;99.90;;;;;;5051729;28;20253;-72
2023/11/01 01:11:38;;;;;;;7.97;4.47;;;11.60;99.90;;;;;;5051323;28;20177;-71
2023/11/01 01:14:03;;;;;;;8.40;4.50;;;11.60;99.90;;;;;;5051420;28;20195;-72
2023/11/01 01:16:29;;;;;;;8.40;4.60;;;11.50;99.90;;;;;;5051072;28;20170;-72
2023/11/01 01:18:55;;;;;;;5.37;4.40;;;11.40;99.90;;;;;;5051573;28;20538;-71
2023/11/01 01:21:20;;;;;;;7.90;4.60;;;11.40;99.90;;;;;;5051369;28;20251;-72
2023/11/01 01:23:46;;;;;;;7.20;5.03;;;11.40;99.90;;;;;;5051263;28;20221;-71
2023/11/01 01:26:11;;;;;;;8.33;5.00;;;11.40;99.90;;;;;;5050893;28;20194;-72
2023/11/01 01:28:37;;;;;;;6.87;4.93;;;11.40;99.90;;;;;;5051080;28;20225;-71
2023/11/01 01:31:03;;;;;;;8.40;5.03;;;11.40;99.90;;;;;;5051400;28;20262;-71
2023/11/01 01:33:28;;;;;;;7.60;5.03;;;11.40;99.90;;;;;;5051162;28;20182;-71
2023/11/01 01:35:55;;;;;;;8.23;5.37;;;11.40;99.90;;;;;;5050950;28;20202;-72
2023/11/01 01:38:20;;;;;;;6.83;4.90;;;11.40;99.90;;;;;;5051171;28;20191;-72
2023/11/01 01:40:46;;;;;;;5.93;5.17;;;11.40;99.90;;;;;;5050780;28;20675;-71
2023/11/01 01:43:20;;;;;;;8.73;5.00;;;11.40;99.90;;;;;;5051162;28;20258;-71
2023/11/01 01:45:53;;;;;;;11.83;5.70;;;11.40;99.90;;;;;;5050762;28;20177;-72
2023/11/01 01:48:19;;;;;;;5.03;4.60;;;11.40;99.90;;;;;;5051337;28;20286;-72
2023/11/01 01:50:45;;;;;;;8.87;4.93;;;11.40;99.90;;;;;;5051146;28;20206;-71
2023/11/01 01:53:11;;;;;;;9.83;5.03;;;11.40;99.90;;;;;;5051208;28;20187;-71
2023/11/01 01:55:36;;;;;;;6.37;5.10;;;11.40;99.90;;;;;;5049732;28;20198;-71
2023/11/01 01:58:02;;;;;;;5.07;4.60;;;11.40;99.90;;;;;;5051149;28;20186;-72
2023/11/01 02:00:29;;;;;;;5.33;4.80;;;11.40;99.90;;;;;;5051311;28;20170;-72
2023/11/01 02:02:55;;;;;;;10.23;4.87;;;11.40;99.90;;;;;;5050219;28;20171;-71
2023/11/01 02:05:21;;;;;;;10.40;5.00;;;11.40;99.90;;;;;;5050759;28;20213;-72
2023/11/01 02:07:47;;;;;;;7.23;4.90;;;11.40;99.90;;;;;;5052081;28;20717;-72
2023/11/01 02:10:14;;;;;;;7.90;4.93;;;11.40;99.90;;;;;;5054587;28;20206;-72
2023/11/01 02:12:40;;;;;;;8.27;4.80;;;11.40;99.90;;;;;;5054870;28;20934;-71
2023/11/01 02:15:07;;;;;;;9.27;4.57;;;11.40;99.90;;;;;;5054541;28;20209;-71
2023/11/01 02:17:33;;;;;;;7.80;4.70;;;11.40;99.90;;;;;;5054867;28;20290;-71
2023/11/01 02:20:02;;;;;;;8.17;5.10;;;11.40;99.90;;;;;;5054882;28;20189;-72
2023/11/01 02:22:28;;;;;;;6.60;4.90;;;11.50;99.90;;;;;;5054854;28;20171;-72
2023/11/01 02:24:55;;;;;;;6.70;5.10;;;11.50;99.90;;;;;;5053913;28;20198;-72
2023/11/01 02:27:20;;;;;;;6.77;4.90;;;11.50;99.90;;;;;;5054480;28;20194;-72
2023/11/01 02:29:46;;;;;;;5.80;4.67;;;11.50;99.90;;;;;;5054789;28;20228;-72
2023/11/01 02:32:11;;;;;;;6.83;4.63;;;11.50;99.90;;;;;;5054859;28;20221;-73
2023/11/01 02:34:37;;;;;;;6.63;5.40;;;11.50;99.90;;;;;;5054139;28;20252;-72
2023/11/01 02:37:03;;;;;;;7.37;5.00;;;11.50;99.90;;;;;;5054351;28;20532;-72
2023/11/01 02:39:29;;;;;;;7.03;5.50;;;11.50;99.90;;;;;;5054310;28;20174;-72
2023/11/01 02:41:55;;;;;;;6.50;5.30;;;11.50;99.90;;;;;;5054146;28;20521;-72
2023/11/01 02:44:20;;;;;;;5.90;5.30;;;11.50;99.90;;;;;;5054162;28;20262;-72
2023/11/01 02:46:46;;;;;;;8.50;5.43;;;11.60;99.90;;;;;;5053868;28;20534;-72
2023/11/01 02:49:12;;;;;;;6.37;5.60;;;11.60;99.90;;;;;;5054289;28;20492;-72
2023/11/01 02:51:37;;;;;;;8.33;5.90;;;11.60;99.90;;;;;;5054027;28;20182;-72
2023/11/01 02:54:03;;;;;;;8.67;5.90;;;11.60;99.90;;;;;;5054051;28;20198;-72
2023/11/01 02:56:29;;;;;;;16.60;6.50;;;11.70;99.90;;;;;;5053450;28;20206;-72
2023/11/01 02:58:54;;;;;;;10.00;6.33;;;11.70;99.90;;;;;;5053819;28;20202;-72
2023/11/01 03:01:21;;;;;;;7.97;5.90;;;11.60;99.90;;;;;;5054139;28;20241;-72
2023/11/01 03:03:48;;;;;;;14.90;6.37;;;11.60;99.90;;;;;;5053769;28;20190;-72
2023/11/01 03:06:14;;;;;;;7.30;6.53;;;11.60;99.90;;;;;;5053762;28;20225;-72
2023/11/01 03:08:40;;;;;;;14.80;6.70;;;11.60;99.90;;;;;;5053505;28;20513;-73
2023/11/01 03:11:05;;;;;;;12.03;6.80;;;11.60;99.90;;;;;;5053582;28;20166;-73
2023/11/01 03:13:31;;;;;;;13.40;6.80;;;11.50;99.90;;;;;;5053727;28;20274;-73
2023/11/01 03:15:56;;;;;;;7.80;6.93;;;11.60;99.90;;;;;;5053515;28;20206;-74
2023/11/01 03:18:22;;;;;;;8.77;7.23;;;11.50;99.90;;;;;;5053661;28;20229;-71
2023/11/01 03:20:47;;;;;;;7.63;6.20;;;11.50;99.90;;;;;;5052967;28;20182;-72
2023/11/01 03:23:13;;;;;;;6.83;6.17;;;11.50;99.90;;;;;;5053579;28;20197;-73
2023/11/01 03:25:39;;;;;;;6.80;6.13;;;11.50;99.90;;;;;;5052997;28;20187;-72
2023/11/01 03:28:04;;;;;;;8.60;6.13;;;11.50;99.90;;;;;;5053552;28;20178;-72
2023/11/01 03:30:30;;;;;;;6.87;6.17;;;11.40;99.90;;;;;;5053263;28;20179;-72
2023/11/01 03:32:55;;;;;;;9.23;5.90;;;11.50;99.90;;;;;;5053333;28;20714;-72
2023/11/01 03:35:21;;;;;;;8.27;6.00;;;11.40;99.90;;;;;;5052991;28;20232;-71
2023/11/01 03:37:46;;;;;;;8.30;5.63;;;11.40;99.90;;;;;;5053260;28;20171;-73
2023/11/01 03:40:12;;;;;;;11.93;6.03;;;11.40;99.90;;;;;;5053082;28;20175;-71
2023/11/01 03:42:37;;;;;;;6.80;5.90;;;11.40;99.90;;;;;;5053343;28;20171;-71
2023/11/01 03:45:04;;;;;;;12.17;6.90;;;11.40;99.90;;;;;;5052829;28;20298;-71
2023/11/01 03:47:30;;;;;;;7.07;5.90;;;11.40;99.90;;;;;;5053355;28;20175;-72
2023/11/01 03:49:55;;;;;;;7.13;6.43;;;11.40;99.90;;;;;;5053044;28;20175;-71
2023/11/01 03:52:21;;;;;;;8.63;6.70;;;11.40;99.90;;;;;;5053056;28;20257;-72
2023/11/01 03:54:46;;;;;;;8.47;6.43;;;11.40;99.90;;;;;;5052725;28;20252;-71
2023/11/01 03:57:12;;;;;;;7.20;6.50;;;11.40;99.90;;;;;;5053008;28;20205;-72
2023/11/01 03:59:38;;;;;;;7.97;6.40;;;11.40;99.90;;;;;;5053097;28;20646;-72
2023/11/01 04:02:04;;;;;;;6.97;6.27;;;11.40;99.90;;;;;;5053069;28;20173;-72
2023/11/01 04:04:31;;;;;;;7.93;6.20;;;11.40;99.90;;;;;;5052886;28;20190;-73
2023/11/01 04:06:56;;;;;;;8.20;6.03;;;11.40;99.90;;;;;;5052750;28;20197;-73
2023/11/01 04:09:22;;;;;;;10.43;5.73;;;11.40;99.90;;;;;;5052982;28;20175;-73
2023/11/01 04:11:48;;;;;;;8.80;5.63;;;11.40;99.90;;;;;;5052458;28;20262;-73
2023/11/01 04:14:14;;;;;;;7.87;5.57;;;11.40;99.90;;;;;;5052784;28;20186;-71
2023/11/01 04:16:40;;;;;;;9.63;6.43;;;11.40;99.90;;;;;;5052234;28;20179;-72
2023/11/01 04:19:05;;;;;;;7.00;5.70;;;11.50;99.90;;;;;;5052827;28;20175;-72
2023/11/01 04:21:31;;;;;;;9.47;5.67;;;11.50;99.90;;;;;;5052720;28;20171;-72
2023/11/01 04:23:56;;;;;;;9.07;6.40;;;11.50;99.90;;;;;;5052612;28;20749;-74
2023/11/01 04:26:22;;;;;;;6.90;6.20;;;11.50;99.90;;;;;;5051957;28;20695;-73
2023/11/01 04:28:48;;;;;;;8.20;7.33;;;11.50;99.90;;;;;;5052516;28;20174;-72
2023/11/01 04:31:15;;;;;;;12.93;6.70;;;11.50;99.90;;;;;;5051660;28;20228;-72
2023/11/01 04:33:41;;;;;;;13.37;6.60;;;11.50;99.90;;;;;;5052328;28;20201;-72
2023/11/01 04:36:08;;;;;;;8.13;7.30;;;11.50;99.90;;;;;;5051990;28;20571;-72
2023/11/01 04:38:37;;;;;;;9.93;6.93;;;11.50;99.90;;;;;;5052312;28;20167;-72
2023/11/01 04:41:08;;;;;;;8.50;6.40;;;11.50;99.90;;;;;;5051898;28;20182;-72
2023/11/01 04:43:35;;;;;;;10.00;6.50;;;11.50;99.90;;;;;;5052228;28;20186;-73
2023/11/01 04:46:01;;;;;;;6.77;6.17;;;11.50;99.90;;;;;;5050855;28;20266;-71
2023/11/01 04:48:26;;;;;;;8.70;5.90;;;11.60;99.90;;;;;;5052167;28;20286;-72
2023/11/01 04:50:52;;;;;;;8.47;5.93;;;11.60;99.90;;;;;;5052439;28;20258;-72
2023/11/01 04:53:17;;;;;;;7.37;5.93;;;11.50;99.90;;;;;;5051691;28;20258;-72
2023/11/01 04:55:43;;;;;;;7.03;5.70;;;11.50;99.90;;;;;;5051997;28;20221;-72
2023/11/01 04:58:09;;;;;;;6.17;5.67;;;11.60;99.90;;;;;;5052199;28;20175;-72
2023/11/01 05:00:34;;;;;;;6.90;6.27;;;11.60;99.90;;;;;;5052037;28;20515;-72
2023/11/01 05:03:00;;;;;;;6.27;5.73;;;11.60;99.90;;;;;;5051865;28;20660;-72
2023/11/01 05:05:25;;;;;;;6.50;5.37;;;11.60;99.90;;;;;;5051821;28;20202;-72
2023/11/01 05:07:51;;;;;;;5.90;5.10;;;11.60;99.90;;;;;;5051574;28;20179;-73
2023/11/01 05:10:17;;;;;;;7.20;5.70;;;11.60;99.90;;;;;;5052055;28;20174;-72
2023/11/01 05:12:43;;;;;;;8.43;5.40;;;11.60;99.90;;;;;;5051781;28;20698;-73
2023/11/01 05:15:09;;;;;;;7.47;5.97;;;11.60;99.90;;;;;;5051450;28;20568;-72
2023/11/01 05:17:35;;;;;;;8.47;5.67;;;11.60;99.90;;;;;;5051946;28;20258;-72
2023/11/01 05:20:03;;;;;;;6.03;5.43;;;11.70;99.90;;;;;;5051737;28;20575;-72
2023/11/01 05:22:29;;;;;;;12.13;6.13;;;11.60;99.90;;;;;;5051501;28;20579;-72
2023/11/01 05:24:55;;;;;;;6.70;5.73;;;11.70;99.90;;;;;;5050473;28;20245;-72
2023/11/01 05:27:20;;;;;;;6.90;5.80;;;11.70;99.90;;;;;;5051657;28;20191;-72
2023/11/01 05:29:47;;;;;;;6.90;6.17;;;11.70;99.90;;;;;;5051780;28;20258;-72
2023/11/01 05:32:12;;;;;;;6.67;6.07;;;11.70;99.90;;;;;;5051690;28;20201;-73
2023/11/01 05:34:38;;;;;;;6.20;5.70;;;11.70;99.90;;;;;;5051145;28;20234;-72
2023/11/01 05:37:04;;;;;;;11.20;6.37;;;11.70;99.90;;;;;;5051258;28;20171;-73
2023/11/01 05:39:30;;;;;;;6.23;5.63;;;11.60;99.90;;;;;;5051318;28;20197;-72
2023/11/01 05:41:55;;;;;;;8.23;6.00;;;11.60;99.90;;;;;;5050700;28;20171;-72
2023/11/01 05:44:21;;;;;;;6.10;5.50;;;11.50;99.90;;;;;;5051430;28;20190;-73
2023/11/01 05:46:47;;;;;;;7.73;5.80;;;11.40;99.90;;;;;;5050611;28;20209;-72
2023/11/01 05:49:14;;;;;;;6.00;5.43;;;11.40;99.90;;;;;;5051473;28;20205;-73
2023/11/01 05:51:40;;;;;;;7.63;5.57;;;11.30;99.90;;;;;;5051584;28;20163;-73
2023/11/01 05:54:05;;;;;;;7.43;5.00;;;11.30;99.90;;;;;;5050981;28;20747;-72
2023/11/01 05:56:31;;;;;;;5.10;4.63;;;11.20;99.90;;;;;;5050822;28;20230;-72
2023/11/01 05:58:57;;;;;;;5.63;5.10;;;11.20;99.90;;;;;;5051268;28;20703;-73
2023/11/01 06:01:24;;;;;;;7.63;5.27;;;11.20;99.90;;;;;;5051239;28;20173;-73
2023/11/01 06:03:50;;;;;;;6.43;5.50;;;11.20;99.90;;;;;;5050951;28;20187;-73
2023/11/01 06:06:16;;;;;;;10.43;6.17;;;11.20;99.90;;;;;;5050921;28;20259;-73
2023/11/01 06:08:42;;;;;;;6.80;6.10;;;11.20;99.90;;;;;;5050859;28;20254;-72
2023/11/01 06:11:08;;;;;;;6.67;5.77;;;11.20;99.90;;;;;;5050898;28;20312;-72
2023/11/01 06:13:34;;;;;;;7.63;6.20;;;11.20;99.90;;;;;;5051285;28;20200;-73
2023/11/01 06:16:04;;;;;;;8.60;6.00;;;11.20;99.90;;;;;;5050854;28;20692;-73
2023/11/01 06:18:31;;;;;;;7.33;6.30;;;11.20;99.90;;;;;;5051142;28;20202;-72
2023/11/01 06:20:56;;;;;;;7.97;5.30;;;11.20;99.90;;;;;;5051112;28;20488;-72
2023/11/01 06:23:22;;;;;;;7.47;5.90;;;11.20;99.90;;;;;;5050719;28;20171;-72
2023/11/01 06:25:48;;;;;;;7.87;5.00;;;11.30;99.90;;;;;;5050703;28;20186;-72
2023/11/01 06:28:14;;;;;;;6.17;5.57;;;11.30;99.90;;;;;;5051103;28;20237;-72
2023/11/01 06:30:41;;;;;;;5.83;5.37;;;11.30;99.90;;;;;;5050820;28;20170;-72
2023/11/01 06:33:06;;;;;;;6.80;5.60;;;11.30;99.90;;;;;;5050863;28;20196;-73
2023/11/01 06:35:32;;;;;;;9.83;5.10;;;11.20;99.90;;;;;;5050508;28;20207;-73
2023/11/01 06:37:57;;;;;;;6.40;5.77;;;11.20;99.90;;;;;;5050547;28;20171;-72
2023/11/01 06:40:23;;;;;;;5.83;5.33;;;11.20;99.90;;;;;;5050513;28;20588;-73
2023/11/01 06:42:49;;;;;;;9.10;6.00;;;11.20;99.90;;;;;;5049783;28;20175;-73
2023/11/01 06:45:14;;;;;;;12.33;6.43;;;11.20;99.90;;;;;;5049784;28;20206;-72
2023/11/01 06:47:40;;;;;;;5.93;5.13;;;11.30;99.90;;;;;;5050357;28;20206;-72
2023/11/01 06:50:06;;;;;;;9.07;6.17;;;11.30;99.90;;;;;;5049540;28;20676;-72
2023/11/01 06:52:32;;;;;;;6.97;5.97;;;11.30;99.90;;;;;;5031228;28;20603;-72
2023/11/01 06:54:57;;;;;;;9.87;6.17;;;11.30;99.90;;;;;;5051359;28;20290;-72
2023/11/01 06:57:23;;;;;;;7.33;5.43;;;11.40;99.90;;;;;;5054242;28;20221;-72
2023/11/01 06:59:49;;;;;;;9.03;6.17;;;11.40;99.90;;;;;;5054033;28;20198;-72
2023/11/01 07:02:14;;;;;;;7.10;5.50;;;11.40;99.90;;;;;;5053949;28;20537;-72
2023/11/01 07:04:40;;;;;;;8.77;6.00;;;11.50;99.90;;;;;;5053723;28;20201;-72
2023/11/01 07:07:05;;;;;;;6.63;5.27;;;11.50;99.90;;;;;;5053641;28;20527;-72
2023/11/01 07:09:31;;;;;;;8.43;6.10;;;11.50;99.90;;;;;;5053670;28;20401;-72
2023/11/01 07:11:57;;;;;;;7.07;5.50;;;11.60;99.90;;;;;;5053820;28;20194;-72
2023/11/01 07:14:23;;;;;;;7.90;5.80;;;11.60;99.90;;;;;;5052085;28;20702;-72
2023/11/01 07:16:49;;;;;;;12.80;5.97;;;11.70;99.90;;;;;;5053179;28;20171;-72
2023/11/01 07:19:15;;;;;;;7.77;5.87;;;11.70;99.90;;;;;;5053497;28;20205;-72
2023/11/01 07:21:41;;;;;;;8.77;6.17;;;11.70;99.90;;;;;;5053613;28;20182;-72
2023/11/01 07:24:08;;;;;;;7.10;5.20;;;11.80;99.90;;;;;;5053499;28;20672;-72
2023/11/01 07:26:34;;;;;;;9.13;6.40;;;11.80;99.90;;;;;;5053094;28;20240;-72
2023/11/01 07:28:59;;;;;;;9.37;6.10;;;11.90;99.90;;;;;;5053057;28;20182;-73
2023/11/01 07:31:26;;;;;;;10.27;6.07;;;11.90;99.90;;;;;;5053303;28;20187;-72
2023/11/01 07:33:52;;;;;;;9.57;6.27;;;11.90;99.90;;;;;;5053080;28;20197;-72
2023/11/01 07:36:20;;;;;;;10.27;6.17;;;12.00;99.90;;;;;;5053016;28;20252;-72
2023/11/01 07:38:46;;;;;;;11.57;6.57;;;12.00;99.90;;;;;;5053150;28;20177;-72
2023/11/01 07:41:14;;;;;;;7.50;6.37;;;12.00;99.90;;;;;;5053095;28;20261;-72
2023/11/01 07:43:40;;;;;;;10.20;6.70;;;12.10;99.90;;;;;;5053299;28;20660;-72
2023/11/01 07:46:06;;;;;;;9.53;6.27;;;12.10;99.90;;;;;;5052571;28;20618;-73
2023/11/01 07:48:32;;;;;;;9.67;6.10;;;12.10;99.90;;;;;;5052865;28;20651;-72
2023/11/01 07:51:00;;;;;;;13.30;6.17;;;12.20;99.90;;;;;;5052793;28;20171;-73
2023/11/01 07:53:26;;;;;;;7.70;5.77;;;12.20;99.90;;;;;;5053139;28;20583;-74
2023/11/01 07:55:52;;;;;;;7.23;6.00;;;12.20;99.90;;;;;;5052605;28;20202;-73
2023/11/01 07:58:18;;;;;;;8.23;5.83;;;12.20;99.90;;;;;;5053587;28;20166;-72
2023/11/01 08:00:43;;;;;;;10.33;6.57;;;12.30;99.90;;;;;;5052565;28;20582;-73
2023/11/01 08:03:09;;;;;;;12.27;6.07;;;12.40;99.90;;;;;;5052247;28;20186;-73
2023/11/01 08:05:35;;;;;;;8.10;5.90;;;12.50;99.90;;;;;;5052249;28;20191;-72
2023/11/01 08:08:00;;;;;;;19.73;6.47;;;12.70;99.90;;;;;;5052549;28;20674;-72
2023/11/01 08:10:26;;;;;;;6.10;5.50;;;12.70;99.90;;;;;;5052637;28;20166;-72
2023/11/01 08:12:51;;;;;;;13.17;6.10;;;12.80;99.90;;;;;;5052342;28;20175;-72
2023/11/01 08:15:17;;;;;;;10.70;6.33;;;12.90;99.90;;;;;;5052114;28;20206;-73
2023/11/01 08:17:42;;;;;;;11.57;6.07;;;12.90;99.90;;;;;;5052174;28;20209;-73
2023/11/01 08:20:08;;;;;;;8.83;6.27;;;13.00;99.90;;;;;;5052329;28;20253;-72
2023/11/01 08:22:35;;;;;;;8.07;6.03;;;13.00;99.90;;;;;;5052319;28;20174;-72
2023/11/01 08:25:01;;;;;;;9.23;6.13;;;13.00;99.90;;;;;;5051733;28;20190;-72
2023/11/01 08:27:27;;;;;;;7.63;5.97;;;13.10;99.90;;;;;;5052232;28;20573;-72
2023/11/01 08:29:52;;;;;;;8.63;5.40;;;13.20;99.90;;;;;;5052178;28;20171;-72
2023/11/01 08:32:18;;;;;;;11.37;5.57;;;13.30;99.90;;;;;;5051843;28;20179;-72
2023/11/01 08:34:44;;;;;;;9.93;6.00;;;13.40;99.90;;;;;;5051763;28;20190;-73
2023/11/01 08:37:10;;;;;;;14.33;5.63;;;13.50;99.90;;;;;;5051768;28;20167;-72
2023/11/01 08:39:35;;;;;;;7.13;5.30;;;13.60;99.90;;;;;;5051818;28;20165;-72
2023/11/01 08:42:01;;;;;;;9.73;5.40;;;13.70;99.90;;;;;;5052113;28;20241;-72
2023/11/01 08:44:27;;;;;;;8.30;5.03;;;13.80;99.90;;;;;;5050092;28;20217;-72
2023/11/01 08:46:53;;;;;;;5.13;4.57;;;13.90;99.90;;;;;;5051145;28;20166;-72
2023/11/01 08:49:20;;;;;;;8.03;4.63;;;14.10;99.90;;;;;;5051765;28;20225;-72
2023/11/01 08:51:46;;;;;;;6.17;5.00;;;14.20;99.90;;;;;;5051751;28;20197;-72
2023/11/01 08:54:13;;;;;;;9.07;4.80;;;14.30;99.90;;;;;;5051407;28;20595;-72
2023/11/01 08:56:40;;;;;;;6.73;4.77;;;14.40;99.90;;;;;;5051271;28;20271;-73
2023/11/01 08:59:06;;;;;;;8.20;4.70;;;14.50;99.90;;;;;;5051507;28;20507;-72
2023/11/01 09:01:33;;;;;;;7.37;4.70;;;14.50;99.90;;;;;;5051451;28;20181;-72
2023/11/01 09:03:58;;;;;;;7.37;4.97;;;14.60;99.90;;;;;;5051194;28;20186;-72
2023/11/01 09:06:24;;;;;;;8.93;4.50;;;14.60;99.90;;;;;;5051264;28;20171;-72
2023/11/01 09:08:50;;;;;;;5.93;3.87;;;14.70;99.90;;;;;;5051420;28;20206;-72
2023/11/01 09:11:16;;;;;;;5.67;3.73;;;14.80;99.90;;;;;;5051239;28;20598;-72
2023/11/01 09:13:43;;;;;;;7.27;3.43;;;14.80;99.90;;;;;;5051375;28;20244;-72
2023/11/01 09:16:09;;;;;;;7.07;3.50;;;14.80;99.90;;;;;;5050874;28;20569;-72
2023/11/01 09:18:34;;;;;;;4.50;3.20;;;14.80;99.90;;;;;;5050913;28;20254;-72
2023/11/01 09:21:01;;;;;;;4.93;3.30;;;14.80;99.90;;;;;;5051082;28;20183;-72
2023/11/01 09:23:27;;;;;;;4.80;3.30;;;14.70;99.90;;;;;;5050377;28;20170;-72
2023/11/01 09:25:53;;;;;;;5.27;3.37;;;14.70;99.90;;;;;;5050288;28;20187;-71
2023/11/01 09:28:19;;;;;;;5.03;3.40;;;14.60;99.90;;;;;;5051376;28;20297;-72
2023/11/01 09:30:44;;;;;;;6.30;3.23;;;14.60;99.90;;;;;;5051253;28;20663;-72
2023/11/01 09:33:10;;;;;;;3.40;3.10;;;14.50;99.90;;;;;;5050681;28;20265;-73
2023/11/01 09:35:37;;;;;;;9.93;3.60;;;14.50;99.90;;;;;;5051076;28;20203;-72
2023/11/01 09:38:03;;;;;;;6.57;3.77;;;14.40;99.90;;;;;;5033395;28;20657;-72
2023/11/01 09:40:28;;;;;;;5.93;3.30;;;14.30;99.90;;;;;;5051577;28;20262;-71
2023/11/01 09:42:55;;;;;;;3.90;3.47;;;14.30;99.90;;;;;;5051370;28;20171;-72
2023/11/01 09:45:21;;;;;;;4.83;3.40;;;14.30;99.90;;;;;;5050793;28;20692;-72
2023/11/01 09:47:49;;;;;;;3.77;3.20;;;14.30;99.90;;;;;;5050677;28;20426;-72
2023/11/01 09:50:17;;;;;;;6.33;3.80;;;14.30;99.90;;;;;;5050996;28;20295;-72
2023/11/01 09:52:43;;;;;;;4.03;3.50;;;14.40;99.90;;;;;;5050993;28;20549;-72
2023/11/01 09:55:12;;;;;;;4.57;3.67;;;14.50;99.90;;;;;;5050463;28;20191;-73
2023/11/01 09:57:41;;;;;;;6.17;3.43;;;14.60;99.90;;;;;;5050910;28;20171;-72
2023/11/01 10:00:08;;;;;;;4.90;3.00;;;14.70;99.90;;;;;;5050605;28;20224;-72
2023/11/01 10:02:34;;;;;;;8.63;3.57;;;14.90;99.90;;;;;;5050563;28;20667;-72
2023/11/01 10:05:02;;;;;;;3.83;3.27;;;15.20;99.90;;;;;;5050384;28;20286;-72
2023/11/01 10:07:28;;;;;;;4.53;3.13;;;15.40;99.90;;;;;;5050857;28;20256;-72
2023/11/01 10:09:54;;;;;;;3.90;2.97;;;15.50;99.90;;;;;;5050764;28;20652;-72
2023/11/01 10:12:20;;;;;;;7.37;3.43;;;15.60;99.90;;;;;;5051218;28;20268;-71
2023/11/01 10:14:46;;;;;;;3.13;2.70;;;15.70;99.90;;;;;;5050117;28;20241;-72
2023/11/01 10:17:11;;;;;;;4.40;3.20;;;15.70;99.90;;;;;;5050395;28;20171;-72
2023/11/01 10:19:40;;;;;;;8.60;3.50;;;15.80;99.90;;;;;;5050671;28;20167;-71
2023/11/01 10:22:06;;;;;;;6.43;2.93;;;15.80;99.90;;;;;;5050704;28;20175;-73
2023/11/01 10:24:31;;;;;;;6.50;3.10;;;15.80;99.90;;;;;;5050465;28;20203;-72
2023/11/01 10:26:57;;;;;;;6.37;2.80;;;15.80;99.90;;;;;;5049992;28;20190;-72
2023/11/01 10:29:23;;;;;;;6.47;3.43;;;15.80;99.90;;;;;;5051298;28;20250;-71
2023/11/01 10:31:56;;;;;;;8.13;3.57;;;15.80;99.90;;;;;;5054385;28;20190;-72
2023/11/01 10:34:29;;;;;;;5.40;3.57;;;15.80;99.90;;;;;;5054135;28;20248;-72
2023/11/01 10:36:57;;;;;;;8.17;3.30;;;15.90;99.90;;;;;;5053639;28;20674;-72
2023/11/01 10:39:24;;;;;;;9.47;3.47;;;15.90;99.90;;;;;;5054054;28;20228;-71
2023/11/01 10:41:54;;;;;;;3.93;3.10;;;16.00;99.90;;;;;;5054555;28;20169;-72
2023/11/01 10:44:22;;;;;;;6.30;3.53;;;16.00;99.90;;;;;;5034381;28;20354;-72
2023/11/01 10:46:49;;;;;;;6.97;3.20;;;16.00;99.90;;;;;;5033695;28;20163;-72
2023/11/01 10:49:15;;;;;;;5.87;3.13;;;16.10;99.90;;;;;;5034783;28;20182;-72
2023/11/01 10:51:42;;;;;;;4.00;3.37;;;16.30;99.90;;;;;;5034313;28;20258;-72
2023/11/01 10:54:09;;;;;;;5.83;3.30;;;16.30;99.90;;;;;;5034251;28;20618;-72
2023/11/01 10:56:35;;;;;;;7.53;3.23;;;16.30;99.90;;;;;;5033989;28;20290;-72
2023/11/01 10:59:20;;;;;;;9.13;3.23;;;16.10;99.90;;;;;;5053579;28;20818;-72
2023/11/01 11:01:55;;;;;;;6.90;3.10;;;16.00;99.90;;;;;;5054028;28;20639;-73
2023/11/01 11:04:30;;;;;;;6.87;3.00;;;15.90;99.90;;;;;;5054159;28;20830;-73
2023/11/01 11:07:03;;;;;;;4.23;2.80;;;15.80;99.90;;;;;;5053928;28;20209;-72
2023/11/01 11:09:29;;;;;;;6.17;3.60;;;15.80;99.90;;;;;;5053859;28;20186;-73
2023/11/01 11:12:19;;;;;;;6.40;3.27;;;15.90;99.90;;;;;;5054130;28;20174;-72
2023/11/01 11:14:50;;;;;;;6.90;3.60;;;15.90;99.90;;;;;;5053483;28;20236;-72
2023/11/01 11:17:19;;;;;;;11.30;3.93;;;16.00;99.90;;;;;;5053841;28;20170;-72
2023/11/01 11:20:14;;;;;;;5.40;3.07;;;16.10;99.90;;;;;;5054145;28;20167;-73
2023/11/01 11:23:00;;;;;;;6.57;4.50;;;16.20;99.90;;;;;;5053547;28;20183;-73
2023/11/01 11:25:41;;;;;;;6.00;3.23;;;16.30;99.90;;;;;;5052771;28;20217;-72
2023/11/01 11:28:08;;;;;;;7.27;3.80;;;16.40;99.90;;;;;;5053612;28;20255;-72
2023/11/01 11:30:57;;;;;;;6.60;3.10;;;16.50;99.90;;;;;;5053855;28;20618;-72
2023/11/01 11:33:22;;;;;;;3.87;3.13;;;16.40;99.90;;;;;;5053408;28;20200;-73
2023/11/01 11:36:20;;;;;;;6.77;3.47;;;16.50;99.90;;;;;;5053186;28;20198;-72
2023/11/01 11:38:55;;;;;;;6.10;2.83;;;16.50;99.90;;;;;;5053396;28;20171;-72
2023/11/01 11:41:27;;;;;;;6.73;3.07;;;16.50;99.90;;;;;;5052795;28;20170;-72
2023/11/01 11:44:05;;;;;;;5.77;3.10;;;16.40;99.90;;;;;;5053124;28;20767;-71
2023/11/01 11:46:32;;;;;;;9.87;3.10;;;16.30;99.90;;;;;;5053241;28;20179;-72
2023/11/01 11:49:05;;;;;;;3.57;3.07;;;16.20;99.90;;;;;;5053118;28;20224;-72
2023/11/01 11:51:35;;;;;;;5.60;2.87;;;16.10;99.90;;;;;;5053314;28;20249;-71
2023/11/01 11:54:12;;;;;;;7.50;4.17;;;16.00;99.90;;;;;;5052987;28;20614;-72
2023/11/01 11:56:38;;;;;;;6.57;3.17;;;15.90;99.90;;;;;;5052571;28;20198;-71
2023/11/01 11:59:04;;;;;;;8.00;3.57;;;15.80;99.90;;;;;;5052556;28;20206;-72
2023/11/01 12:01:29;;;;;;;13.67;3.90;;;15.80;99.90;;;;;;5052940;28;20191;-72
2023/11/01 12:03:57;;;;;;;7.40;3.27;;;15.70;99.90;;;;;;5052729;28;20191;-71
2023/11/01 12:06:40;;;;;;;5.37;3.37;;;15.70;99.90;;;;;;5034603;28;20182;-71
2023/11/01 12:09:32;;;;;;;6.23;3.33;;;15.70;99.90;;;;;;5052817;28;20206;-70
2023/11/01 12:12:07;;;;;;;6.33;3.53;;;15.50;99.90;;;;;;5048677;28;20252;-71
2023/11/01 12:14:34;;;;;;;4.10;3.13;;;15.50;99.90;;;;;;5052802;28;20560;-72
2023/11/01 12:17:02;;;;;;;6.97;4.00;;;15.50;99.90;;;;;;5052681;28;20457;-70
2023/11/01 12:19:28;;;;;;;7.90;3.70;;;15.40;99.90;;;;;;5052875;28;20175;-72
2023/11/01 12:21:55;;;;;;;5.73;4.00;;;15.40;99.90;;;;;;5052465;28;20648;-72
2023/11/01 12:24:25;;;;;;;7.47;3.83;;;15.40;99.90;;;;;;5052657;28;20324;-71
2023/11/01 12:27:07;;;;;;;5.83;3.40;;;15.40;99.90;;;;;;5052207;28;20190;-71
2023/11/01 12:29:35;;;;;;;9.03;3.73;;;15.40;99.90;;;;;;5052476;28;20190;-72
2023/11/01 12:32:07;;;;;;;4.37;3.43;;;15.40;99.90;;;;;;5051928;28;20175;-72
2023/11/01 12:34:37;;;;;;;7.10;4.00;;;15.30;99.90;;;;;;5052376;28;20194;-71
2023/11/01 12:37:13;;;;;;;9.80;4.17;;;15.40;99.90;;;;;;5052083;28;20190;-72
2023/11/01 12:39:39;;;;;;;9.57;4.43;;;15.40;99.90;;;;;;5051975;28;20167;-72
2023/11/01 12:42:24;;;;;;;4.70;3.73;;;15.40;99.90;;;;;;5052229;28;20189;-72
2023/11/01 12:44:52;;;;;;;7.73;4.30;;;15.50;99.90;;;;;;5051899;28;20198;-73